createdAt,value
2017-01-12T00:00:06.812Z,0
2017-01-12T00:01:16.554Z,0
2017-01-12T00:02:26.758Z,0
2017-01-12T00:03:36.043Z,0
2017-01-12T00:04:46.192Z,0
2017-01-12T00:05:55.909Z,0
2017-01-12T00:07:05.198Z,0
2017-01-12T00:08:14.975Z,0
2017-01-12T00:09:24.704Z,0
2017-01-12T00:10:34.861Z,0
2017-01-12T00:11:44.610Z,0
2017-01-12T00:12:54.335Z,0
2017-01-12T00:14:04.552Z,0
2017-01-12T00:15:14.273Z,0
2017-01-12T00:16:23.994Z,0
2017-01-12T00:17:33.279Z,0
2017-01-12T00:18:42.996Z,0
2017-01-12T00:19:52.765Z,0
2017-01-12T00:21:02.478Z,0
2017-01-12T00:22:12.218Z,0
2017-01-12T00:23:22.375Z,0
2017-01-12T00:24:32.085Z,0
2017-01-12T00:25:41.426Z,0
2017-01-12T00:26:51.586Z,0
2017-01-12T00:28:01.299Z,0
2017-01-12T00:29:11.896Z,0
2017-01-12T00:30:21.617Z,0
2017-01-12T00:31:31.402Z,0
2017-01-12T00:32:41.131Z,0
2017-01-12T00:33:50.856Z,0
2017-01-12T00:35:00.137Z,0
2017-01-12T00:36:09.854Z,0
2017-01-12T00:37:19.183Z,0
2017-01-12T00:38:29.776Z,0
2017-01-12T00:39:39.050Z,0
2017-01-12T00:40:48.782Z,0
2017-01-12T00:41:58.499Z,0
2017-01-12T00:43:07.824Z,0
2017-01-12T00:44:17.986Z,0
2017-01-12T00:45:27.702Z,0
2017-01-12T00:46:37.424Z,0
2017-01-12T00:47:46.709Z,0
2017-01-12T00:48:56.041Z,0
2017-01-12T00:50:06.208Z,0
2017-01-12T00:51:15.496Z,0
2017-01-12T00:52:25.653Z,0
2017-01-12T00:53:35.374Z,0
2017-01-12T00:54:44.711Z,0
2017-01-12T00:55:54.440Z,0
2017-01-12T00:57:04.165Z,0
2017-01-12T00:58:14.759Z,0
2017-01-12T00:59:24.044Z,0
2017-01-12T01:00:33.821Z,0
2017-01-12T01:01:43.542Z,0
2017-01-12T01:02:53.703Z,0
2017-01-12T01:04:02.988Z,0
2017-01-12T01:05:12.273Z,0
2017-01-12T01:06:22.250Z,0
2017-01-12T01:07:31.975Z,0
2017-01-12T01:08:42.568Z,0
2017-01-12T01:09:51.854Z,0
2017-01-12T01:11:02.024Z,0
2017-01-12T01:12:11.792Z,0
2017-01-12T01:13:21.073Z,0
2017-01-12T01:14:31.670Z,0
2017-01-12T01:15:40.956Z,0
2017-01-12T01:16:50.245Z,0
2017-01-12T01:17:59.582Z,0
2017-01-12T01:19:08.863Z,0
2017-01-12T01:20:18.584Z,0
2017-01-12T01:21:28.741Z,0
2017-01-12T01:22:38.475Z,0
2017-01-12T01:23:48.244Z,0
2017-01-12T01:24:58.437Z,0
2017-01-12T01:26:08.170Z,0
2017-01-12T01:27:17.455Z,0
2017-01-12T01:28:26.760Z,0
2017-01-12T01:29:36.089Z,0
2017-01-12T01:30:46.246Z,0
2017-01-12T01:31:56.407Z,0
2017-01-12T01:33:06.124Z,0
2017-01-12T01:34:15.410Z,0
2017-01-12T01:35:25.615Z,0
2017-01-12T01:36:35.340Z,0
2017-01-12T01:37:45.509Z,0
2017-01-12T01:38:54.806Z,0
2017-01-12T01:40:04.556Z,0
2017-01-12T01:41:14.320Z,0
2017-01-12T01:42:24.486Z,0
2017-01-12T01:43:34.212Z,0
2017-01-12T01:44:44.377Z,0
2017-01-12T01:45:54.534Z,0
2017-01-12T01:47:04.752Z,0
2017-01-12T01:48:14.913Z,0
2017-01-12T01:49:24.630Z,0
2017-01-12T01:50:33.919Z,0
2017-01-12T01:51:43.645Z,0
2017-01-12T01:52:53.006Z,0
2017-01-12T01:54:03.595Z,0
2017-01-12T01:55:13.749Z,0
2017-01-12T01:56:23.494Z,0
2017-01-12T01:57:33.211Z,0
2017-01-12T01:58:42.985Z,0
2017-01-12T01:59:52.706Z,0
2017-01-12T02:01:01.999Z,0
2017-01-12T02:02:11.312Z,0
2017-01-12T02:03:20.598Z,0
2017-01-12T02:04:30.831Z,0
2017-01-12T02:05:40.561Z,0
2017-01-12T02:06:49.846Z,0
2017-01-12T02:08:00.007Z,0
2017-01-12T02:09:09.293Z,0
2017-01-12T02:10:18.625Z,0
2017-01-12T02:11:28.783Z,0
2017-01-12T02:12:38.061Z,0
2017-01-12T02:13:47.781Z,0
2017-01-12T02:14:57.939Z,0
2017-01-12T02:16:07.708Z,0
2017-01-12T02:17:17.429Z,0
2017-01-12T02:18:26.715Z,0
2017-01-12T02:19:36.444Z,0
2017-01-12T02:20:46.169Z,0
2017-01-12T02:21:56.386Z,0
2017-01-12T02:23:06.712Z,0
2017-01-12T02:24:16.465Z,0
2017-01-12T02:25:26.626Z,0
2017-01-12T02:26:36.343Z,0
2017-01-12T02:27:46.613Z,0
2017-01-12T02:28:55.898Z,0
2017-01-12T02:30:05.627Z,0
2017-01-12T02:31:15.789Z,0
2017-01-12T02:32:25.522Z,0
2017-01-12T02:33:35.331Z,0
2017-01-12T02:34:46.384Z,0
2017-01-12T02:35:56.117Z,0
2017-01-12T02:37:06.278Z,0
2017-01-12T02:38:16.008Z,0
2017-01-12T02:39:25.929Z,0
2017-01-12T02:40:35.650Z,0
2017-01-12T02:41:45.371Z,0
2017-01-12T02:42:56.001Z,0
2017-01-12T02:44:05.290Z,0
2017-01-12T02:45:14.623Z,0
2017-01-12T02:46:23.909Z,0
2017-01-12T02:47:33.626Z,0
2017-01-12T02:48:42.911Z,0
2017-01-12T02:49:52.196Z,0
2017-01-12T02:51:02.401Z,0
2017-01-12T02:52:12.563Z,0
2017-01-12T02:53:22.728Z,0
2017-01-12T02:54:32.450Z,0
2017-01-12T02:55:42.222Z,0
2017-01-12T02:56:52.872Z,0
2017-01-12T02:58:02.589Z,0
2017-01-12T02:59:13.191Z,0
2017-01-12T03:00:22.479Z,0
2017-01-12T03:01:32.636Z,0
2017-01-12T03:02:42.402Z,0
2017-01-12T03:03:52.555Z,0
2017-01-12T03:05:03.149Z,0
2017-01-12T03:06:12.881Z,0
2017-01-12T03:07:23.483Z,0
2017-01-12T03:08:33.684Z,0
2017-01-12T03:09:43.417Z,0
2017-01-12T03:10:53.139Z,0
2017-01-12T03:12:02.424Z,0
2017-01-12T03:13:12.149Z,0
2017-01-12T03:14:21.926Z,0
2017-01-12T03:15:31.211Z,0
2017-01-12T03:16:40.493Z,0
2017-01-12T03:17:49.774Z,0
2017-01-12T03:18:59.499Z,0
2017-01-12T03:20:09.264Z,0
2017-01-12T03:21:18.545Z,0
2017-01-12T03:22:27.826Z,0
2017-01-12T03:23:37.544Z,0
2017-01-12T03:24:46.833Z,0
2017-01-12T03:25:57.042Z,0
2017-01-12T03:27:06.331Z,0
2017-01-12T03:28:15.612Z,0
2017-01-12T03:29:25.762Z,0
2017-01-12T03:30:35.931Z,0
2017-01-12T03:31:45.700Z,0
2017-01-12T03:32:55.853Z,0
2017-01-12T03:34:05.578Z,0
2017-01-12T03:35:15.748Z,0
2017-01-12T03:36:25.909Z,0
2017-01-12T03:37:36.119Z,0
2017-01-12T03:38:45.411Z,0
2017-01-12T03:39:55.128Z,0
2017-01-12T03:41:04.850Z,0
2017-01-12T03:42:14.135Z,0
2017-01-12T03:43:23.908Z,0
2017-01-12T03:44:33.629Z,0
2017-01-12T03:45:43.794Z,0
2017-01-12T03:46:53.952Z,0
2017-01-12T03:48:03.669Z,0
2017-01-12T03:49:13.442Z,0
2017-01-12T03:50:22.735Z,0
2017-01-12T03:51:32.453Z,0
2017-01-12T03:52:42.618Z,0
2017-01-12T03:53:52.343Z,0
2017-01-12T03:55:02.556Z,0
2017-01-12T03:56:11.837Z,0
2017-01-12T03:57:21.579Z,0
2017-01-12T03:58:31.739Z,0
2017-01-12T03:59:41.461Z,0
2017-01-12T04:00:50.790Z,0
2017-01-12T04:02:00.503Z,0
2017-01-12T04:03:10.228Z,0
2017-01-12T04:04:19.514Z,0
2017-01-12T04:05:29.235Z,0
2017-01-12T04:06:39.004Z,0
2017-01-12T04:07:48.722Z,0
2017-01-12T04:08:58.013Z,0
2017-01-12T04:10:08.616Z,0
2017-01-12T04:11:18.781Z,0
2017-01-12T04:12:28.555Z,0
2017-01-12T04:13:37.840Z,0
2017-01-12T04:14:47.570Z,0
2017-01-12T04:15:56.851Z,0
2017-01-12T04:17:06.568Z,0
2017-01-12T04:18:15.901Z,0
2017-01-12T04:19:25.186Z,0
2017-01-12T04:20:35.344Z,0
2017-01-12T04:21:45.505Z,0
2017-01-12T04:22:55.666Z,0
2017-01-12T04:24:05.444Z,0
2017-01-12T04:25:15.165Z,0
2017-01-12T04:26:24.458Z,0
2017-01-12T04:27:34.179Z,0
2017-01-12T04:28:44.337Z,0
2017-01-12T04:29:54.102Z,0
2017-01-12T04:31:03.387Z,0
2017-01-12T04:32:13.544Z,0
2017-01-12T04:33:23.270Z,0
2017-01-12T04:34:33.431Z,0
2017-01-12T04:35:43.212Z,0
2017-01-12T04:36:52.933Z,0
2017-01-12T04:38:03.090Z,0
2017-01-12T04:39:13.259Z,0
2017-01-12T04:40:22.981Z,0
2017-01-12T04:41:32.754Z,0
2017-01-12T04:42:42.047Z,0
2017-01-12T04:43:51.764Z,0
2017-01-12T04:45:01.481Z,0
2017-01-12T04:46:11.210Z,0
2017-01-12T04:47:20.976Z,0
2017-01-12T04:48:30.697Z,0
2017-01-12T04:49:40.850Z,0
2017-01-12T04:50:50.567Z,0
2017-01-12T04:51:59.848Z,0
2017-01-12T04:53:10.933Z,0
2017-01-12T04:54:20.654Z,0
2017-01-12T04:55:30.383Z,0
2017-01-12T04:56:39.661Z,0
2017-01-12T04:57:49.382Z,0
2017-01-12T04:58:58.719Z,0
2017-01-12T05:00:08.008Z,0
2017-01-12T05:01:17.728Z,0
2017-01-12T05:02:27.474Z,0
2017-01-12T05:03:36.759Z,0
2017-01-12T05:04:47.125Z,0
2017-01-12T05:05:56.434Z,0
2017-01-12T05:07:06.587Z,0
2017-01-12T05:08:15.868Z,0
2017-01-12T05:09:25.149Z,0
2017-01-12T05:10:35.362Z,0
2017-01-12T05:11:45.535Z,0
2017-01-12T05:12:55.697Z,0
2017-01-12T05:14:05.418Z,0
2017-01-12T05:15:15.575Z,0
2017-01-12T05:16:24.912Z,0
2017-01-12T05:17:34.193Z,0
2017-01-12T05:18:43.919Z,0
2017-01-12T05:19:53.200Z,0
2017-01-12T05:21:03.361Z,0
2017-01-12T05:22:12.698Z,0
2017-01-12T05:23:22.423Z,0
2017-01-12T05:24:32.148Z,0
2017-01-12T05:25:41.429Z,0
2017-01-12T05:26:51.147Z,0
2017-01-12T05:28:00.923Z,0
2017-01-12T05:29:10.205Z,0
2017-01-12T05:30:19.950Z,0
2017-01-12T05:31:29.244Z,0
2017-01-12T05:32:38.961Z,0
2017-01-12T05:33:48.734Z,0
2017-01-12T05:34:59.335Z,0
2017-01-12T05:36:09.932Z,0
2017-01-12T05:37:19.665Z,0
2017-01-12T05:38:29.835Z,0
2017-01-12T05:39:39.168Z,0
2017-01-12T05:40:49.337Z,0
2017-01-12T05:41:59.502Z,0
2017-01-12T05:43:09.219Z,0
2017-01-12T05:44:19.377Z,0
2017-01-12T05:45:28.718Z,0
2017-01-12T05:46:38.003Z,0
2017-01-12T05:47:47.284Z,0
2017-01-12T05:48:57.009Z,0
2017-01-12T05:50:06.738Z,0
2017-01-12T05:51:16.107Z,0
2017-01-12T05:52:25.832Z,0
2017-01-12T05:53:35.549Z,0
2017-01-12T05:54:45.267Z,0
2017-01-12T05:55:54.544Z,0
2017-01-12T05:57:03.894Z,0
2017-01-12T05:58:14.062Z,0
2017-01-12T05:59:23.347Z,0
2017-01-12T06:00:32.628Z,0
2017-01-12T06:01:42.345Z,0
2017-01-12T06:02:52.558Z,0
2017-01-12T06:04:02.723Z,0
2017-01-12T06:05:12.005Z,0
2017-01-12T06:06:21.734Z,0
2017-01-12T06:07:31.455Z,0
2017-01-12T06:08:41.228Z,0
2017-01-12T06:09:50.505Z,0
2017-01-12T06:10:59.786Z,0
2017-01-12T06:12:09.948Z,0
2017-01-12T06:13:20.105Z,0
2017-01-12T06:14:29.882Z,0
2017-01-12T06:15:39.167Z,0
2017-01-12T06:16:48.449Z,0
2017-01-12T06:17:58.177Z,0
2017-01-12T06:19:07.931Z,0
2017-01-12T06:20:17.272Z,0
2017-01-12T06:21:26.989Z,0
2017-01-12T06:22:36.702Z,0
2017-01-12T06:23:46.860Z,0
2017-01-12T06:24:56.577Z,0
2017-01-12T06:26:06.354Z,0
2017-01-12T06:27:16.503Z,0
2017-01-12T06:28:26.228Z,0
2017-01-12T06:29:36.394Z,0
2017-01-12T06:30:46.554Z,0
2017-01-12T06:31:56.332Z,0
2017-01-12T06:33:06.488Z,0
2017-01-12T06:34:16.218Z,0
2017-01-12T06:35:25.505Z,0
2017-01-12T06:36:34.824Z,0
2017-01-12T06:37:44.598Z,0
2017-01-12T06:38:54.751Z,0
2017-01-12T06:40:04.487Z,0
2017-01-12T06:41:14.208Z,0
2017-01-12T06:42:23.930Z,0
2017-01-12T06:43:33.703Z,0
2017-01-12T06:44:43.416Z,0
2017-01-12T06:45:53.140Z,0
2017-01-12T06:47:02.430Z,0
2017-01-12T06:48:12.162Z,0
2017-01-12T06:49:23.699Z,0
2017-01-12T06:50:32.988Z,0
2017-01-12T06:51:42.717Z,4
2017-01-12T06:52:52.446Z,0
2017-01-12T06:54:02.612Z,4
2017-01-12T06:55:12.380Z,0
2017-01-12T06:56:22.097Z,0
2017-01-12T06:57:31.378Z,4
2017-01-12T06:58:41.099Z,4
2017-01-12T06:59:50.860Z,4
2017-01-12T07:01:01.105Z,4
2017-01-12T07:02:11.274Z,8
2017-01-12T07:03:21.420Z,8
2017-01-12T07:04:30.736Z,12
2017-01-12T07:05:40.897Z,12
2017-01-12T07:06:50.814Z,16
2017-01-12T07:08:00.543Z,24
2017-01-12T07:09:10.716Z,20
2017-01-12T07:10:20.881Z,28
2017-01-12T07:11:30.158Z,32
2017-01-12T07:12:40.363Z,36
2017-01-12T07:13:49.652Z,40
2017-01-12T07:14:59.370Z,44
2017-01-12T07:16:08.655Z,44
2017-01-12T07:17:18.812Z,52
2017-01-12T07:18:29.021Z,52
2017-01-12T07:19:39.631Z,68
2017-01-12T07:20:49.800Z,72
2017-01-12T07:22:00.425Z,84
2017-01-12T07:23:10.142Z,88
2017-01-12T07:24:19.911Z,92
2017-01-12T07:25:30.073Z,96
2017-01-12T07:26:40.250Z,108
2017-01-12T07:27:49.983Z,112
2017-01-12T07:29:00.140Z,124
2017-01-12T07:30:09.470Z,140
2017-01-12T07:31:18.751Z,164
2017-01-12T07:32:28.032Z,180
2017-01-12T07:33:38.194Z,184
2017-01-12T07:34:47.915Z,192
2017-01-12T07:35:57.244Z,200
2017-01-12T07:37:06.961Z,212
2017-01-12T07:38:16.238Z,220
2017-01-12T07:39:25.516Z,232
2017-01-12T07:40:35.232Z,256
2017-01-12T07:41:44.562Z,256
2017-01-12T07:42:53.851Z,272
2017-01-12T07:44:03.576Z,304
2017-01-12T07:45:13.733Z,352
2017-01-12T07:46:23.459Z,372
2017-01-12T07:47:33.668Z,352
2017-01-12T07:48:43.821Z,368
2017-01-12T07:49:53.974Z,368
2017-01-12T07:51:03.692Z,352
2017-01-12T07:52:13.857Z,348
2017-01-12T07:53:24.067Z,340
2017-01-12T07:54:33.788Z,356
2017-01-12T07:55:43.513Z,392
2017-01-12T07:56:53.670Z,400
2017-01-12T07:58:02.956Z,376
2017-01-12T07:59:13.169Z,440
2017-01-12T08:00:23.330Z,424
2017-01-12T08:01:33.495Z,444
2017-01-12T08:02:43.229Z,404
2017-01-12T08:03:52.950Z,320
2017-01-12T08:05:02.716Z,256
2017-01-12T08:06:12.429Z,336
2017-01-12T08:07:22.153Z,232
2017-01-12T08:08:31.447Z,168
2017-01-12T08:09:41.600Z,196
2017-01-12T08:10:52.249Z,244
2017-01-12T08:12:02.411Z,188
2017-01-12T08:13:11.695Z,224
2017-01-12T08:14:20.981Z,252
2017-01-12T08:15:31.133Z,200
2017-01-12T08:16:41.155Z,268
2017-01-12T08:17:50.448Z,352
2017-01-12T08:19:00.257Z,484
2017-01-12T08:20:10.890Z,632
2017-01-12T08:21:20.179Z,724
2017-01-12T08:22:34.040Z,788
2017-01-12T08:23:46.758Z,1196
2017-01-12T08:24:56.927Z,1372
2017-01-12T08:26:08.692Z,1336
2017-01-12T08:27:22.250Z,1356
2017-01-12T08:28:34.231Z,1264
2017-01-12T08:29:43.952Z,1252
2017-01-12T08:30:55.446Z,864
2017-01-12T08:32:06.119Z,752
2017-01-12T08:33:16.329Z,728
2017-01-12T08:34:27.362Z,912
2017-01-12T08:35:37.615Z,1024
2017-01-12T08:36:47.420Z,1172
2017-01-12T08:37:57.573Z,1416
2017-01-12T08:39:07.783Z,1728
2017-01-12T08:40:18.860Z,1400
2017-01-12T08:41:29.645Z,1140
2017-01-12T08:42:39.383Z,1036
2017-01-12T08:43:50.424Z,1108
2017-01-12T08:45:01.221Z,1296
2017-01-12T08:46:11.387Z,1424
2017-01-12T08:47:23.876Z,1264
2017-01-12T08:48:34.513Z,1372
2017-01-12T08:49:45.126Z,1328
2017-01-12T08:50:56.135Z,1380
2017-01-12T08:52:05.933Z,1552
2017-01-12T08:53:15.654Z,1288
2017-01-12T08:54:26.591Z,1032
2017-01-12T08:55:38.292Z,1424
2017-01-12T08:56:47.626Z,1176
2017-01-12T08:57:57.348Z,1420
2017-01-12T08:59:07.816Z,1124
2017-01-12T09:00:20.469Z,1108
2017-01-12T09:01:30.362Z,1164
2017-01-12T09:02:40.132Z,1372
2017-01-12T09:03:49.413Z,1548
2017-01-12T09:04:59.139Z,1932
2017-01-12T09:06:08.860Z,2056
2017-01-12T09:07:18.573Z,2144
2017-01-12T09:08:28.778Z,2556
2017-01-12T09:09:38.495Z,2184
2017-01-12T09:10:48.656Z,2120
2017-01-12T09:12:00.378Z,1980
2017-01-12T09:13:13.295Z,2668
2017-01-12T09:14:23.608Z,1836
2017-01-12T09:15:33.766Z,2104
2017-01-12T09:16:45.351Z,1376
2017-01-12T09:17:56.056Z,1324
2017-01-12T09:19:07.125Z,1544
2017-01-12T09:20:17.951Z,1996
2017-01-12T09:21:27.668Z,1872
2017-01-12T09:22:39.982Z,1688
2017-01-12T09:23:51.054Z,2104
2017-01-12T09:25:00.779Z,1964
2017-01-12T09:26:11.837Z,1952
2017-01-12T09:27:22.134Z,2084
2017-01-12T09:28:32.751Z,2400
2017-01-12T09:29:42.485Z,2088
2017-01-12T09:30:52.026Z,2004
2017-01-12T09:32:04.267Z,2168
2017-01-12T09:33:14.633Z,2252
2017-01-12T09:34:23.926Z,2084
2017-01-12T09:35:35.391Z,1596
2017-01-12T09:36:46.592Z,1808
2017-01-12T09:37:56.365Z,2216
2017-01-12T09:39:07.138Z,2220
2017-01-12T09:40:17.832Z,1968
2017-01-12T09:41:28.208Z,2304
2017-01-12T09:42:37.930Z,2696
2017-01-12T09:43:47.991Z,2704
2017-01-12T09:44:57.280Z,2708
2017-01-12T09:46:06.569Z,3084
2017-01-12T09:47:16.730Z,2824
2017-01-12T09:48:29.005Z,2728
2017-01-12T09:49:39.893Z,3060
2017-01-12T09:50:49.622Z,3224
2017-01-12T09:52:00.715Z,2084
2017-01-12T09:53:10.009Z,2180
2017-01-12T09:54:20.530Z,1536
2017-01-12T09:55:29.887Z,1956
2017-01-12T09:56:44.524Z,2652
2017-01-12T09:57:54.730Z,2440
2017-01-12T09:59:04.903Z,2752
2017-01-12T10:00:17.404Z,2528
2017-01-12T10:01:28.861Z,2376
2017-01-12T10:02:39.590Z,2268
2017-01-12T10:03:48.877Z,2172
2017-01-12T10:05:01.165Z,2344
2017-01-12T10:06:11.118Z,2144
2017-01-12T10:07:20.451Z,1684
2017-01-12T10:08:32.361Z,2160
2017-01-12T10:09:43.878Z,2352
2017-01-12T10:10:54.071Z,2192
2017-01-12T10:12:06.200Z,2192
2017-01-12T10:13:21.293Z,2276
2017-01-12T10:14:31.482Z,1732
2017-01-12T10:15:41.208Z,1936
2017-01-12T10:16:51.369Z,1928
2017-01-12T10:18:01.094Z,1484
2017-01-12T10:19:10.887Z,1828
2017-01-12T10:20:20.609Z,1988
2017-01-12T10:21:29.894Z,2364
2017-01-12T10:22:39.179Z,2072
2017-01-12T10:23:49.344Z,2168
2017-01-12T10:24:59.134Z,2112
2017-01-12T10:26:08.871Z,2096
2017-01-12T10:27:18.152Z,2196
2017-01-12T10:28:27.441Z,2164
2017-01-12T10:29:37.678Z,2180
2017-01-12T10:30:47.118Z,1756
2017-01-12T10:31:56.400Z,1788
2017-01-12T10:33:06.137Z,2112
2017-01-12T10:34:15.863Z,2284
2017-01-12T10:35:25.591Z,2200
2017-01-12T10:36:35.757Z,2700
2017-01-12T10:37:45.050Z,2232
2017-01-12T10:38:54.783Z,2288
2017-01-12T10:40:07.243Z,2380
2017-01-12T10:41:19.641Z,1976
2017-01-12T10:42:32.902Z,2404
2017-01-12T10:43:45.135Z,2764
2017-01-12T10:44:57.461Z,2644
2017-01-12T10:46:09.502Z,2388
2017-01-12T10:47:22.129Z,2140
2017-01-12T10:48:32.984Z,2100
2017-01-12T10:49:42.277Z,2144
2017-01-12T10:50:55.475Z,2108
2017-01-12T10:52:07.328Z,2356
2017-01-12T10:53:17.096Z,3076
2017-01-12T10:54:26.822Z,2760
2017-01-12T10:55:36.551Z,2104
2017-01-12T10:56:45.844Z,1952
2017-01-12T10:57:55.129Z,1600
2017-01-12T10:59:04.462Z,1620
2017-01-12T11:00:14.196Z,2520
2017-01-12T11:01:24.376Z,1744
2017-01-12T11:02:34.102Z,2076
2017-01-12T11:03:44.271Z,1664
2017-01-12T11:04:54.059Z,1704
2017-01-12T11:06:04.252Z,2132
2017-01-12T11:07:14.001Z,2072
2017-01-12T11:08:23.346Z,2728
2017-01-12T11:09:32.635Z,2916
2017-01-12T11:10:41.973Z,2120
2017-01-12T11:11:51.265Z,1416
2017-01-12T11:13:00.991Z,2636
2017-01-12T11:14:11.163Z,2772
2017-01-12T11:15:21.356Z,3392
2017-01-12T11:16:31.145Z,2728
2017-01-12T11:17:40.874Z,2724
2017-01-12T11:18:51.047Z,3020
2017-01-12T11:20:00.776Z,2556
2017-01-12T11:21:10.517Z,2668
2017-01-12T11:22:20.294Z,2912
2017-01-12T11:23:30.027Z,3100
2017-01-12T11:24:40.188Z,3208
2017-01-12T11:25:50.344Z,3108
2017-01-12T11:26:59.634Z,3324
2017-01-12T11:28:09.991Z,3332
2017-01-12T11:29:19.723Z,4088
2017-01-12T11:30:29.444Z,3384
2017-01-12T11:31:38.733Z,2564
2017-01-12T11:32:48.467Z,3436
2017-01-12T11:33:57.803Z,3540
2017-01-12T11:35:07.100Z,1932
2017-01-12T11:36:16.389Z,2476
2017-01-12T11:37:26.122Z,1888
2017-01-12T11:38:36.739Z,2020
2017-01-12T11:39:46.512Z,1240
2017-01-12T11:40:56.697Z,1028
2017-01-12T11:42:06.866Z,860
2017-01-12T11:43:16.591Z,688
2017-01-12T11:44:26.757Z,728
2017-01-12T11:45:36.969Z,1024
2017-01-12T11:46:47.162Z,968
2017-01-12T11:47:56.887Z,1136
2017-01-12T11:49:06.613Z,1208
2017-01-12T11:50:16.789Z,1376
2017-01-12T11:51:26.122Z,1372
2017-01-12T11:52:35.851Z,1876
2017-01-12T11:53:45.148Z,2200
2017-01-12T11:54:54.885Z,2096
2017-01-12T11:56:05.509Z,1916
2017-01-12T11:57:15.846Z,1800
2017-01-12T11:58:25.575Z,2892
2017-01-12T11:59:37.076Z,3516
2017-01-12T12:00:48.121Z,2112
2017-01-12T12:01:57.854Z,2540
2017-01-12T12:03:08.071Z,3028
2017-01-12T12:04:17.360Z,3320
2017-01-12T12:05:26.652Z,2832
2017-01-12T12:06:35.945Z,3408
2017-01-12T12:07:46.110Z,2576
2017-01-12T12:08:55.452Z,2784
2017-01-12T12:10:05.216Z,2020
2017-01-12T12:11:15.385Z,1964
2017-01-12T12:12:25.558Z,2960
2017-01-12T12:13:35.271Z,3676
2017-01-12T12:14:45.052Z,3828
2017-01-12T12:15:54.797Z,3116
2017-01-12T12:17:06.498Z,2020
2017-01-12T12:18:16.655Z,1476
2017-01-12T12:19:26.028Z,1556
2017-01-12T12:20:35.577Z,1416
2017-01-12T12:21:45.866Z,1972
2017-01-12T12:22:56.007Z,2348
2017-01-12T12:24:05.296Z,2844
2017-01-12T12:25:16.581Z,3360
2017-01-12T12:26:26.818Z,3520
2017-01-12T12:27:36.108Z,3168
2017-01-12T12:28:46.561Z,3808
2017-01-12T12:29:57.070Z,3008
2017-01-12T12:31:08.287Z,2752
2017-01-12T12:32:17.840Z,2716
2017-01-12T12:33:27.349Z,3392
2017-01-12T12:34:37.075Z,3432
2017-01-12T12:35:47.456Z,3048
2017-01-12T12:36:56.745Z,2216
2017-01-12T12:38:06.778Z,2476
2017-01-12T12:39:16.824Z,1652
2017-01-12T12:40:27.109Z,1208
2017-01-12T12:41:37.494Z,1752
2017-01-12T12:42:47.447Z,2256
2017-01-12T12:43:56.780Z,2628
2017-01-12T12:45:06.502Z,3016
2017-01-12T12:46:15.795Z,3212
2017-01-12T12:47:25.524Z,3696
2017-01-12T12:48:36.057Z,4176
2017-01-12T12:49:46.711Z,4344
2017-01-12T12:50:56.000Z,3560
2017-01-12T12:52:06.601Z,2736
2017-01-12T12:53:16.758Z,2700
2017-01-12T12:54:26.040Z,2300
2017-01-12T12:55:35.385Z,2112
2017-01-12T12:56:45.034Z,2000
2017-01-12T12:57:54.758Z,2332
2017-01-12T12:59:04.484Z,2684
2017-01-12T13:00:15.081Z,3268
2017-01-12T13:01:24.422Z,2800
2017-01-12T13:02:33.715Z,3452
2017-01-12T13:03:43.440Z,2972
2017-01-12T13:04:53.598Z,2280
2017-01-12T13:06:03.100Z,2984
2017-01-12T13:07:12.885Z,3088
2017-01-12T13:08:22.614Z,3020
2017-01-12T13:09:32.339Z,3188
2017-01-12T13:10:42.721Z,3004
2017-01-12T13:11:53.370Z,2372
2017-01-12T13:13:03.147Z,2408
2017-01-12T13:14:13.816Z,2700
2017-01-12T13:15:24.594Z,2140
2017-01-12T13:16:36.267Z,2408
2017-01-12T13:17:47.428Z,1744
2017-01-12T13:18:57.202Z,1840
2017-01-12T13:20:06.491Z,1692
2017-01-12T13:21:15.788Z,1548
2017-01-12T13:22:25.545Z,1528
2017-01-12T13:23:34.827Z,1736
2017-01-12T13:24:45.360Z,1728
2017-01-12T13:25:55.097Z,1668
2017-01-12T13:27:04.943Z,1616
2017-01-12T13:28:15.631Z,1764
2017-01-12T13:29:25.809Z,2228
2017-01-12T13:30:35.586Z,2380
2017-01-12T13:31:45.322Z,2240
2017-01-12T13:32:54.620Z,2244
2017-01-12T13:34:03.918Z,2100
2017-01-12T13:35:13.655Z,1952
2017-01-12T13:36:24.428Z,1952
2017-01-12T13:37:34.113Z,1904
2017-01-12T13:38:44.150Z,1964
2017-01-12T13:39:53.883Z,1936
2017-01-12T13:41:04.169Z,1924
2017-01-12T13:42:14.494Z,1968
2017-01-12T13:43:23.787Z,1888
2017-01-12T13:44:33.526Z,1816
2017-01-12T13:45:44.110Z,1736
2017-01-12T13:46:54.063Z,1696
2017-01-12T13:48:03.984Z,1708
2017-01-12T13:49:13.277Z,1696
2017-01-12T13:50:22.562Z,1700
2017-01-12T13:51:32.291Z,1624
2017-01-12T13:52:42.945Z,1632
2017-01-12T13:53:53.034Z,1560
2017-01-12T13:55:03.430Z,1564
2017-01-12T13:56:14.557Z,1496
2017-01-12T13:57:24.157Z,1444
2017-01-12T13:58:33.738Z,1460
2017-01-12T13:59:43.964Z,1528
2017-01-12T14:00:53.693Z,1560
2017-01-12T14:02:04.445Z,1588
2017-01-12T14:03:14.479Z,1544
2017-01-12T14:04:25.920Z,1460
2017-01-12T14:05:37.794Z,1572
2017-01-12T14:06:47.518Z,1588
2017-01-12T14:07:56.812Z,1532
2017-01-12T14:09:06.989Z,1416
2017-01-12T14:10:16.698Z,1412
2017-01-12T14:11:27.143Z,1444
2017-01-12T14:12:37.324Z,1108
2017-01-12T14:13:47.930Z,1300
2017-01-12T14:14:58.851Z,1436
2017-01-12T14:16:08.488Z,1508
2017-01-12T14:17:18.786Z,1588
2017-01-12T14:18:28.511Z,1544
2017-01-12T14:19:37.800Z,1444
2017-01-12T14:20:48.262Z,1172
2017-01-12T14:21:58.867Z,1376
2017-01-12T14:23:08.529Z,1240
2017-01-12T14:24:18.373Z,1080
2017-01-12T14:25:28.519Z,1076
2017-01-12T14:26:38.813Z,976
2017-01-12T14:27:48.542Z,976
2017-01-12T14:28:58.043Z,964
2017-01-12T14:30:08.220Z,992
2017-01-12T14:31:17.502Z,1004
2017-01-12T14:32:27.227Z,1056
2017-01-12T14:33:36.965Z,1204
2017-01-12T14:34:46.310Z,1316
2017-01-12T14:35:56.043Z,1280
2017-01-12T14:37:06.081Z,1100
2017-01-12T14:38:16.254Z,980
2017-01-12T14:39:26.539Z,944
2017-01-12T14:40:37.780Z,840
2017-01-12T14:41:48.898Z,680
2017-01-12T14:42:59.075Z,656
2017-01-12T14:44:08.368Z,808
2017-01-12T14:45:17.654Z,784
2017-01-12T14:46:27.735Z,644
2017-01-12T14:47:37.680Z,572
2017-01-12T14:48:47.618Z,524
2017-01-12T14:49:56.911Z,572
2017-01-12T14:51:06.232Z,604
2017-01-12T14:52:16.454Z,560
2017-01-12T14:53:25.791Z,540
2017-01-12T14:54:35.316Z,580
2017-01-12T14:55:45.486Z,564
2017-01-12T14:56:54.771Z,552
2017-01-12T14:58:04.989Z,572
2017-01-12T14:59:14.730Z,576
2017-01-12T15:00:24.887Z,560
2017-01-12T15:01:34.729Z,556
2017-01-12T15:02:45.453Z,492
2017-01-12T15:03:56.111Z,376
2017-01-12T15:05:05.841Z,332
2017-01-12T15:06:15.134Z,324
2017-01-12T15:07:24.423Z,336
2017-01-12T15:08:34.148Z,296
2017-01-12T15:09:43.646Z,268
2017-01-12T15:10:53.931Z,292
2017-01-12T15:12:03.656Z,220
2017-01-12T15:13:13.821Z,180
2017-01-12T15:16:41.305Z,128
2017-01-12T15:17:51.147Z,100
2017-01-12T15:20:10.197Z,100
2017-01-12T15:21:20.318Z,64
2017-01-12T15:22:30.855Z,48
2017-01-12T15:24:49.526Z,44
2017-01-12T15:26:01.819Z,52
2017-01-12T15:27:12.293Z,40
2017-01-12T15:29:34.288Z,40
2017-01-12T15:30:43.785Z,32
2017-01-12T15:31:53.078Z,36
2017-01-12T15:33:02.975Z,32
2017-01-12T15:34:13.617Z,28
2017-01-12T15:35:23.776Z,24
2017-01-12T15:36:33.811Z,24
2017-01-12T15:37:43.548Z,20
2017-01-12T15:38:53.485Z,20
2017-01-12T15:40:03.891Z,20
2017-01-12T15:41:13.172Z,20
2017-01-12T15:42:22.897Z,20
2017-01-12T15:43:32.195Z,16
2017-01-12T15:44:41.535Z,16
2017-01-12T15:45:50.829Z,12
2017-01-12T15:47:01.019Z,8
2017-01-12T15:48:12.139Z,8
2017-01-12T15:49:22.033Z,12
2017-01-12T15:50:32.611Z,8
2017-01-12T15:51:42.475Z,8
2017-01-12T15:52:53.652Z,8
2017-01-12T15:54:03.824Z,8
2017-01-12T15:55:13.111Z,8
2017-01-12T15:56:22.456Z,4
2017-01-12T15:57:32.658Z,4
2017-01-12T15:58:41.943Z,8
2017-01-12T15:59:52.112Z,4
2017-01-12T16:01:02.281Z,4
2017-01-12T16:02:11.958Z,0
2017-01-12T16:03:22.188Z,4
2017-01-12T16:04:32.801Z,4
2017-01-12T16:05:43.399Z,4
2017-01-12T16:06:54.344Z,4
2017-01-12T16:08:03.681Z,0
2017-01-12T16:09:13.842Z,0
2017-01-12T16:10:23.127Z,0
2017-01-12T16:11:32.612Z,0
2017-01-12T16:12:42.353Z,0
2017-01-12T16:13:52.563Z,0
2017-01-12T16:15:02.732Z,0
2017-01-12T16:16:13.458Z,0
2017-01-12T16:17:23.491Z,0
2017-01-12T16:18:33.940Z,0
2017-01-12T16:19:44.553Z,0
2017-01-12T16:20:53.842Z,0
2017-01-12T16:22:03.567Z,0
2017-01-12T16:23:13.729Z,0
2017-01-12T16:24:23.470Z,0
2017-01-12T16:25:33.259Z,0
2017-01-12T16:26:42.548Z,0
2017-01-12T16:27:52.713Z,0
2017-01-12T16:29:02.143Z,0
2017-01-12T16:30:12.028Z,0